createdAt,value
2017-06-20T04:34:49.524Z,65.1
2017-06-20T04:35:29.027Z,65.0
2017-06-20T04:36:08.531Z,64.9
2017-06-20T04:36:48.035Z,65.0
2017-06-20T04:37:27.546Z,64.9
2017-06-20T04:38:07.726Z,65.1
2017-06-20T04:38:47.248Z,64.8
2017-06-20T04:39:26.758Z,64.7
2017-06-20T04:40:06.262Z,64.3
2017-06-20T04:40:45.769Z,64.3
2017-06-20T04:41:25.278Z,64.0
2017-06-20T04:42:04.792Z,64.8
2017-06-20T04:42:44.303Z,64.1
2017-06-20T04:43:23.814Z,64.8
2017-06-20T04:44:03.326Z,64.6
2017-06-20T04:44:42.829Z,65.0
2017-06-20T04:45:22.353Z,64.9
2017-06-20T04:46:01.873Z,64.8
2017-06-20T04:46:41.375Z,64.8
2017-06-20T04:47:20.887Z,65.0
2017-06-20T04:48:00.397Z,65.2
2017-06-20T04:48:39.911Z,65.3
2017-06-20T04:49:19.419Z,65.4
2017-06-20T04:49:58.928Z,65.5
2017-06-20T04:50:38.438Z,64.9
2017-06-20T04:51:18.005Z,65.3
2017-06-20T04:51:57.520Z,64.4
2017-06-20T04:52:37.055Z,65.0
2017-06-20T04:53:16.565Z,65.4
2017-06-20T04:53:56.072Z,65.3
2017-06-20T04:54:35.580Z,65.5
2017-06-20T04:55:15.101Z,65.3
2017-06-20T04:55:54.610Z,65.0
2017-06-20T04:56:34.119Z,65.0
2017-06-20T04:57:13.627Z,64.8
2017-06-20T04:57:53.153Z,65.0
2017-06-20T04:58:32.664Z,65.0
2017-06-20T04:59:12.175Z,64.9
2017-06-20T04:59:51.684Z,64.8
2017-06-20T05:00:31.202Z,65.0
2017-06-20T05:01:10.716Z,65.0
2017-06-20T05:01:50.229Z,64.7
2017-06-20T05:02:29.741Z,65.0
2017-06-20T05:03:09.249Z,64.5
2017-06-20T05:03:48.763Z,65.2
2017-06-20T05:04:28.271Z,64.5
2017-06-20T05:05:07.785Z,64.5
2017-06-20T05:05:47.300Z,64.6
2017-06-20T05:06:26.814Z,64.5
2017-06-20T05:07:06.329Z,64.4
2017-06-20T05:07:45.836Z,64.3
2017-06-20T05:08:25.347Z,64.0
2017-06-20T05:09:04.859Z,64.2
2017-06-20T05:09:44.369Z,63.8
2017-06-20T05:10:23.888Z,63.8
2017-06-20T05:11:03.400Z,63.8
2017-06-20T05:11:42.916Z,63.8
2017-06-20T05:12:22.420Z,64.2
2017-06-20T05:13:01.933Z,64.4
2017-06-20T05:13:41.441Z,64.1
2017-06-20T05:14:20.954Z,64.0
2017-06-20T05:15:00.466Z,63.9
2017-06-20T05:15:39.977Z,63.9
2017-06-20T05:16:19.500Z,64.3
2017-06-20T05:16:59.007Z,64.3
2017-06-20T05:17:38.521Z,64.3
2017-06-20T05:18:18.029Z,64.1
2017-06-20T05:18:57.543Z,64.3
2017-06-20T05:19:37.056Z,63.6
2017-06-20T05:20:16.568Z,64.4
2017-06-20T05:20:56.082Z,64.0
2017-06-20T05:21:35.594Z,63.7
2017-06-20T05:22:15.104Z,63.8
2017-06-20T05:22:54.632Z,63.5
2017-06-20T05:23:34.158Z,63.4
2017-06-20T05:24:13.660Z,63.6
2017-06-20T05:24:53.170Z,63.3
2017-06-20T05:25:32.682Z,63.7
